Pence, Indiana
Current Conditions -  °F | °C
As of 9:35 PM on Wednesday 17 Dec 2014 (Local Time) from KDNV Reporting Station
Overcast Overcast  
Wind Chill: 20°   Ceiling: 2100
Heat Index: 26°   Visibility: 10mi
Dew Point: 20°   Wind: 5mph
Humidity: 78%   Direction: 310°NW
Pressure: 30.26"   Gusts: NA
Location:  40.3333°N, 87.2831°W
Report Text: KDNV 180235Z AUTO 31004KT 10SM OVC021 M04/M07 A3026 RMK AO2 T10361069
Loading
Personal Weather Stations






























Interactive Weather Map New forecast layout! Learn more

10-Day Weather Forecast

Advertisements
Track Severe Weather on mobile